Time;durP1;ratioP1;P1;durP2;ratioP2;P2;SDS_P1;SDS_P2;PMS_P1;PMS_P2;Temp;Humidity;BMP_temperature;BMP_pressure;BME280_temperature;BME280_humidity;BME280_pressure;Samples;Min_cycle;Max_cycle;Signal;HPM_P1;HPM_P2
2024/01/12 00:02:08;;;;;;;49.80;24.40;;;1.10;99.90;;;;;;5014941;28;20245;-65
2024/01/12 00:04:34;;;;;;;38.77;23.17;;;1.10;99.90;;;;;;5019402;28;20470;-65
2024/01/12 00:06:59;;;;;;;47.07;24.60;;;1.00;99.90;;;;;;5022949;28;20188;-65
2024/01/12 00:09:25;;;;;;;46.33;24.70;;;1.00;99.90;;;;;;5012613;28;20192;-65
2024/01/12 00:11:51;;;;;;;48.07;24.70;;;1.00;99.90;;;;;;5014341;28;20590;-65
2024/01/12 00:14:17;;;;;;;43.20;25.10;;;1.00;99.90;;;;;;5019193;28;20470;-65
2024/01/12 00:16:47;;;;;;;43.47;24.53;;;1.00;99.90;;;;;;5017607;28;20195;-65
2024/01/12 00:19:13;;;;;;;39.70;25.90;;;1.00;99.90;;;;;;5023684;28;20176;-65
2024/01/12 00:21:42;;;;;;;43.70;25.20;;;0.90;99.90;;;;;;5012636;28;20457;-65
2024/01/12 00:24:07;;;;;;;52.53;26.00;;;0.90;99.90;;;;;;5019709;28;20858;-65
2024/01/12 00:26:33;;;;;;;47.00;26.00;;;0.90;99.90;;;;;;5014610;28;20519;-65
2024/01/12 00:28:58;;;;;;;44.40;27.27;;;0.90;99.90;;;;;;5010843;28;20673;-65
2024/01/12 00:31:24;;;;;;;42.63;26.87;;;0.90;99.90;;;;;;5014664;28;20222;-65
2024/01/12 00:33:49;;;;;;;42.60;25.63;;;0.80;99.90;;;;;;5015293;28;20211;-66
2024/01/12 00:36:15;;;;;;;55.33;29.13;;;0.80;99.90;;;;;;5014728;28;20195;-65
2024/01/12 00:38:41;;;;;;;50.93;28.67;;;0.80;99.90;;;;;;5013350;28;20262;-65
2024/01/12 00:41:06;;;;;;;41.13;24.83;;;0.80;99.90;;;;;;5014290;28;20229;-66
2024/01/12 00:43:33;;;;;;;46.93;27.63;;;0.80;99.90;;;;;;5016369;28;20267;-65
2024/01/12 00:45:58;;;;;;;43.90;26.77;;;0.80;99.90;;;;;;5016493;28;20222;-65
2024/01/12 00:48:24;;;;;;;41.30;25.13;;;0.80;99.90;;;;;;5026307;28;20448;-66
2024/01/12 00:50:50;;;;;;;44.50;26.20;;;0.80;99.90;;;;;;5014452;28;20669;-65
2024/01/12 00:53:15;;;;;;;47.47;25.93;;;0.80;99.90;;;;;;5015094;28;20212;-65
2024/01/12 00:55:41;;;;;;;48.10;26.70;;;0.80;99.90;;;;;;5028150;28;20624;-66
2024/01/12 00:58:06;;;;;;;47.93;26.30;;;0.80;99.90;;;;;;5018144;28;20199;-65
2024/01/12 01:00:32;;;;;;;40.00;24.23;;;0.70;99.90;;;;;;5009438;28;20196;-65
2024/01/12 01:03:01;;;;;;;43.13;25.40;;;0.70;99.90;;;;;;5022606;28;20831;-65
2024/01/12 01:05:27;;;;;;;48.70;26.87;;;0.70;99.90;;;;;;5013126;28;20187;-65
2024/01/12 01:07:53;;;;;;;43.47;25.50;;;0.70;99.90;;;;;;5014382;28;20461;-65
2024/01/12 01:10:19;;;;;;;40.90;24.40;;;0.70;99.90;;;;;;5011667;28;20934;-65
2024/01/12 01:12:44;;;;;;;43.87;24.80;;;0.70;99.90;;;;;;5016842;28;20267;-65
2024/01/12 01:15:13;;;;;;;46.80;25.90;;;0.70;99.90;;;;;;5013022;28;20220;-65
2024/01/12 01:17:39;;;;;;;56.00;28.20;;;0.60;99.90;;;;;;5007769;28;20542;-65
2024/01/12 01:20:05;;;;;;;48.60;27.73;;;0.60;99.90;;;;;;5016553;28;20451;-65
2024/01/12 01:22:33;;;;;;;48.67;25.60;;;0.60;99.90;;;;;;5017114;28;20222;-65
2024/01/12 01:24:59;;;;;;;52.87;26.13;;;0.60;99.90;;;;;;5017210;28;20500;-66
2024/01/12 01:27:25;;;;;;;49.57;29.40;;;0.60;99.90;;;;;;5016821;28;20498;-66
2024/01/12 01:29:51;;;;;;;51.03;27.40;;;0.60;99.90;;;;;;5018248;28;20438;-66
2024/01/12 01:32:16;;;;;;;56.03;28.63;;;0.60;99.90;;;;;;5009502;28;20855;-66
2024/01/12 01:34:42;;;;;;;45.87;26.00;;;0.60;99.90;;;;;;5013964;28;21025;-66
2024/01/12 01:37:08;;;;;;;45.03;26.37;;;0.60;99.90;;;;;;5006292;28;20238;-66
2024/01/12 01:39:33;;;;;;;46.80;26.20;;;0.60;99.90;;;;;;5017403;28;20273;-66
2024/01/12 01:42:01;;;;;;;43.70;26.33;;;0.60;99.90;;;;;;5015364;28;20204;-66
2024/01/12 01:44:27;;;;;;;47.30;27.37;;;0.60;99.90;;;;;;5005858;28;20204;-66
2024/01/12 01:46:54;;;;;;;45.00;27.33;;;0.60;99.90;;;;;;5015003;28;20473;-65
2024/01/12 01:49:21;;;;;;;51.83;27.13;;;0.60;99.90;;;;;;5007470;28;20477;-65
2024/01/12 01:51:47;;;;;;;49.33;27.10;;;0.60;99.90;;;;;;5013809;28;20454;-66
2024/01/12 01:54:13;;;;;;;43.07;26.63;;;0.60;99.90;;;;;;5021204;28;21053;-66
2024/01/12 01:56:40;;;;;;;46.00;27.83;;;0.60;99.90;;;;;;5011927;28;20518;-66
2024/01/12 01:59:06;;;;;;;45.20;26.90;;;0.60;99.90;;;;;;5018856;28;20442;-66
2024/01/12 02:01:32;;;;;;;47.97;29.40;;;0.60;99.90;;;;;;5019219;28;21063;-66
2024/01/12 02:03:59;;;;;;;49.63;27.63;;;0.60;99.90;;;;;;5019699;28;20544;-66
2024/01/12 02:06:25;;;;;;;46.90;26.33;;;0.60;99.90;;;;;;5020668;28;20189;-66
2024/01/12 02:08:52;;;;;;;44.60;25.17;;;0.50;99.90;;;;;;5022467;28;20457;-66
2024/01/12 02:11:19;;;;;;;44.03;27.23;;;0.50;99.90;;;;;;5016903;28;20925;-66
2024/01/12 02:13:44;;;;;;;49.57;27.17;;;0.50;99.90;;;;;;5012467;28;20501;-66
2024/01/12 02:16:10;;;;;;;50.80;29.07;;;0.50;99.90;;;;;;5015608;28;20933;-66
2024/01/12 02:18:36;;;;;;;48.03;27.50;;;0.50;99.90;;;;;;5021286;28;20595;-66
2024/01/12 02:21:02;;;;;;;47.87;29.00;;;0.50;99.90;;;;;;5012936;28;20442;-66
2024/01/12 02:23:27;;;;;;;47.63;28.30;;;0.50;99.90;;;;;;5017511;28;20255;-66
2024/01/12 02:25:53;;;;;;;52.40;27.57;;;0.50;99.90;;;;;;5015925;28;20674;-66
2024/01/12 02:28:19;;;;;;;44.93;27.60;;;0.50;99.90;;;;;;5010609;28;20554;-66
2024/01/12 02:30:44;;;;;;;49.37;28.00;;;0.40;99.90;;;;;;5017760;28;20187;-66
2024/01/12 02:33:10;;;;;;;43.07;26.20;;;0.40;99.90;;;;;;5014372;28;20215;-66
2024/01/12 02:35:35;;;;;;;45.37;28.70;;;0.40;99.90;;;;;;5016463;28;20294;-66
2024/01/12 02:38:01;;;;;;;44.67;25.20;;;0.40;99.90;;;;;;5019452;28;20202;-66
2024/01/12 02:40:26;;;;;;;44.33;25.50;;;0.40;99.90;;;;;;5010397;28;20194;-66
2024/01/12 02:42:52;;;;;;;45.90;25.83;;;0.40;99.90;;;;;;5013873;28;20249;-66
2024/01/12 02:45:19;;;;;;;45.33;26.87;;;0.40;99.90;;;;;;5019985;28;20180;-66
2024/01/12 02:47:44;;;;;;;46.50;26.83;;;0.40;99.90;;;;;;5016525;28;20188;-66
2024/01/12 02:50:10;;;;;;;44.63;27.60;;;0.40;99.90;;;;;;5017671;28;20940;-66
2024/01/12 02:52:36;;;;;;;47.47;27.10;;;0.40;99.90;;;;;;5020713;28;20726;-66
2024/01/12 02:55:05;;;;;;;49.40;28.40;;;0.40;99.90;;;;;;5017154;28;20602;-66
2024/01/12 02:57:31;;;;;;;45.37;25.80;;;0.40;99.90;;;;;;5012488;28;20215;-66
2024/01/12 02:59:57;;;;;;;57.53;29.30;;;0.30;99.90;;;;;;5020162;28;20532;-66
2024/01/12 03:02:24;;;;;;;48.97;26.83;;;0.30;99.90;;;;;;5011669;28;20476;-66
2024/01/12 03:04:50;;;;;;;51.13;29.30;;;0.30;99.90;;;;;;5013057;28;20878;-66
2024/01/12 03:07:15;;;;;;;45.07;27.37;;;0.30;99.90;;;;;;5018119;28;20448;-66
2024/01/12 03:09:41;;;;;;;54.40;30.53;;;0.30;99.90;;;;;;5015303;28;20258;-66
2024/01/12 03:12:07;;;;;;;55.63;32.47;;;0.20;99.90;;;;;;5016764;28;20194;-66
2024/01/12 03:14:33;;;;;;;50.50;29.07;;;0.10;99.90;;;;;;5014044;28;20218;-66
2024/01/12 03:16:59;;;;;;;51.30;30.87;;;0.00;99.90;;;;;;5025134;28;20440;-66
2024/01/12 03:19:24;;;;;;;54.00;28.43;;;0.00;99.90;;;;;;5013944;28;21694;-66
2024/01/12 03:21:50;;;;;;;42.07;27.57;;;0.00;99.90;;;;;;5013107;28;20214;-66
2024/01/12 03:24:15;;;;;;;50.43;27.67;;;0.00;99.90;;;;;;5015764;28;20204;-65
2024/01/12 03:26:41;;;;;;;46.77;25.77;;;0.00;99.90;;;;;;5018153;28;20271;-65
2024/01/12 03:29:06;;;;;;;46.40;27.47;;;0.00;99.90;;;;;;5016745;28;20196;-65
2024/01/12 03:31:33;;;;;;;52.47;27.60;;;-0.10;99.90;;;;;;5019704;28;20274;-65
2024/01/12 03:33:58;;;;;;;48.77;27.73;;;-0.10;99.90;;;;;;5024130;28;20263;-65
2024/01/12 03:36:26;;;;;;;46.27;28.10;;;-0.10;99.90;;;;;;5024565;28;20440;-65
2024/01/12 03:38:54;;;;;;;48.17;26.50;;;-0.10;99.90;;;;;;5014800;28;22150;-65
2024/01/12 03:41:20;;;;;;;42.87;26.67;;;-0.10;99.90;;;;;;5025694;28;20472;-65
2024/01/12 03:43:46;;;;;;;41.93;24.83;;;-0.10;99.90;;;;;;5016559;28;20480;-65
2024/01/12 03:46:11;;;;;;;47.07;26.50;;;-0.10;99.90;;;;;;5011454;28;20440;-66
2024/01/12 03:48:39;;;;;;;46.17;25.20;;;-0.10;99.90;;;;;;5014009;28;20255;-65
2024/01/12 03:51:04;;;;;;;44.90;26.70;;;-0.10;99.90;;;;;;5013666;28;20234;-65
2024/01/12 03:53:30;;;;;;;40.83;22.83;;;-0.10;99.90;;;;;;5013618;28;20959;-65
2024/01/12 03:55:56;;;;;;;48.70;26.50;;;-0.10;99.90;;;;;;5010524;28;20561;-65
2024/01/12 03:58:21;;;;;;;43.70;25.50;;;-0.10;99.90;;;;;;5009563;28;20210;-65
2024/01/12 04:00:47;;;;;;;43.73;25.43;;;-0.10;99.90;;;;;;5006262;28;20286;-64
2024/01/12 04:03:13;;;;;;;43.03;24.93;;;-0.10;99.90;;;;;;5017434;28;20218;-64
2024/01/12 04:05:39;;;;;;;44.23;24.60;;;-0.10;99.90;;;;;;5014512;28;20534;-65
2024/01/12 04:08:05;;;;;;;41.63;24.77;;;-0.10;99.90;;;;;;5014678;28;20456;-65
2024/01/12 04:10:31;;;;;;;41.37;24.37;;;-0.10;99.90;;;;;;5016676;28;20281;-65
2024/01/12 04:12:57;;;;;;;37.80;22.97;;;-0.10;99.90;;;;;;5019741;28;20438;-65
2024/01/12 04:15:22;;;;;;;41.70;23.83;;;-0.10;99.90;;;;;;5015979;28;20191;-65
2024/01/12 04:17:48;;;;;;;41.50;24.40;;;-0.10;99.90;;;;;;5014507;28;22101;-65
2024/01/12 04:20:14;;;;;;;42.67;25.40;;;-0.10;99.90;;;;;;5012349;28;20198;-65
2024/01/12 04:22:39;;;;;;;41.27;25.20;;;-0.10;99.90;;;;;;5008744;28;20237;-66
2024/01/12 04:25:05;;;;;;;50.37;26.03;;;-0.10;99.90;;;;;;5012372;28;20200;-64
2024/01/12 04:27:31;;;;;;;43.87;25.47;;;-0.20;99.90;;;;;;5009274;28;20183;-63
2024/01/12 04:29:57;;;;;;;44.23;25.70;;;-0.20;99.90;;;;;;5012034;28;21074;-65
2024/01/12 04:32:22;;;;;;;44.80;24.47;;;-0.20;99.90;;;;;;5012401;28;20192;-64
2024/01/12 04:34:48;;;;;;;46.33;26.20;;;-0.20;99.90;;;;;;5015463;28;20797;-63
2024/01/12 04:37:13;;;;;;;49.73;25.17;;;-0.30;99.90;;;;;;5013237;28;20215;-63
2024/01/12 04:39:40;;;;;;;49.17;26.37;;;-0.30;99.90;;;;;;5009280;28;20941;-64
2024/01/12 04:42:06;;;;;;;46.60;23.90;;;-0.30;99.90;;;;;;5018143;28;20217;-63
2024/01/12 04:44:31;;;;;;;42.77;24.87;;;-0.30;99.90;;;;;;5010597;28;20967;-65
2024/01/12 04:46:57;;;;;;;41.60;25.30;;;-0.30;99.90;;;;;;5014458;28;20282;-65
2024/01/12 04:49:22;;;;;;;45.07;26.07;;;-0.30;99.90;;;;;;5010547;28;20242;-65
2024/01/12 04:51:48;;;;;;;44.17;25.00;;;-0.40;99.90;;;;;;5017716;28;20638;-64
2024/01/12 04:54:14;;;;;;;38.63;24.70;;;-0.40;99.90;;;;;;5014261;28;20946;-65
2024/01/12 04:56:39;;;;;;;43.67;25.00;;;-0.40;99.90;;;;;;5012646;28;20190;-64
2024/01/12 04:59:05;;;;;;;42.77;24.47;;;-0.40;99.90;;;;;;5016389;28;20219;-65
2024/01/12 05:01:30;;;;;;;41.73;26.03;;;-0.40;99.90;;;;;;5010910;28;20251;-64
2024/01/12 05:03:56;;;;;;;47.17;24.87;;;-0.40;99.90;;;;;;5007635;28;20206;-65
2024/01/12 05:06:21;;;;;;;43.23;23.90;;;-0.40;99.90;;;;;;5015764;28;20179;-64
2024/01/12 05:08:47;;;;;;;42.47;25.17;;;-0.40;99.90;;;;;;5012362;28;20226;-64
2024/01/12 05:11:13;;;;;;;44.57;26.33;;;-0.40;99.90;;;;;;5016057;28;20210;-64
2024/01/12 05:13:38;;;;;;;42.53;24.40;;;-0.50;99.90;;;;;;5013123;28;20217;-64
2024/01/12 05:16:04;;;;;;;40.23;23.20;;;-0.50;99.90;;;;;;5013843;28;20191;-64
2024/01/12 05:18:29;;;;;;;48.93;27.57;;;-0.50;99.90;;;;;;5010820;28;20196;-65
2024/01/12 05:20:55;;;;;;;42.47;23.10;;;-0.50;99.90;;;;;;5016985;28;20190;-65
2024/01/12 05:23:21;;;;;;;41.80;24.17;;;-0.50;99.90;;;;;;5016143;28;20215;-65
2024/01/12 05:25:46;;;;;;;52.63;26.60;;;-0.50;99.90;;;;;;5010779;28;20220;-65
2024/01/12 05:28:12;;;;;;;41.27;26.30;;;-0.60;99.90;;;;;;5016008;28;20198;-65
2024/01/12 05:30:37;;;;;;;50.60;27.03;;;-0.50;99.90;;;;;;5010747;28;20189;-65
2024/01/12 05:33:03;;;;;;;40.87;24.60;;;-0.60;99.90;;;;;;5010955;28;20660;-65
2024/01/12 05:35:28;;;;;;;41.50;25.20;;;-0.60;99.90;;;;;;5014092;28;20201;-65
2024/01/12 05:37:55;;;;;;;47.97;26.63;;;-0.60;99.90;;;;;;5011994;28;20559;-65
2024/01/12 05:40:20;;;;;;;50.60;27.17;;;-0.60;99.90;;;;;;5007961;28;20192;-65
2024/01/12 05:42:46;;;;;;;47.30;26.40;;;-0.60;99.90;;;;;;5012704;28;20494;-65
2024/01/12 05:45:12;;;;;;;39.73;23.73;;;-0.60;99.90;;;;;;5015898;28;20674;-65
2024/01/12 05:47:38;;;;;;;46.13;26.80;;;-0.70;99.90;;;;;;5012674;28;20280;-65
2024/01/12 05:50:06;;;;;;;47.53;26.83;;;-0.70;99.90;;;;;;5011110;28;20273;-65
2024/01/12 05:52:32;;;;;;;48.10;26.17;;;-0.60;99.90;;;;;;5013613;28;20436;-65
2024/01/12 05:54:57;;;;;;;44.30;25.27;;;-0.70;99.90;;;;;;5014280;28;20583;-65
2024/01/12 05:57:23;;;;;;;41.20;24.87;;;-0.60;99.90;;;;;;5010573;28;20479;-65
2024/01/12 05:59:49;;;;;;;50.50;27.83;;;-0.60;99.90;;;;;;5010162;28;20193;-65
2024/01/12 06:02:15;;;;;;;38.40;24.13;;;-0.70;99.90;;;;;;5007533;28;20936;-65
2024/01/12 06:04:41;;;;;;;41.27;24.10;;;-0.70;99.90;;;;;;5012494;28;20690;-65
2024/01/12 06:07:07;;;;;;;44.87;24.43;;;-0.70;99.90;;;;;;5010226;28;20537;-65
2024/01/12 06:09:32;;;;;;;39.13;22.00;;;-0.70;99.90;;;;;;5014230;28;20193;-65
2024/01/12 06:11:58;;;;;;;41.93;23.37;;;-0.70;99.90;;;;;;5011626;28;20563;-65
2024/01/12 06:14:23;;;;;;;41.50;25.20;;;-0.70;99.90;;;;;;5010885;28;20221;-65
2024/01/12 06:16:49;;;;;;;41.93;22.83;;;-0.60;99.90;;;;;;5010304;28;20190;-65
2024/01/12 06:19:14;;;;;;;48.80;26.90;;;-0.70;99.90;;;;;;5008138;28;20189;-65
2024/01/12 06:21:41;;;;;;;41.83;22.43;;;-0.60;99.90;;;;;;5012286;28;20685;-65
2024/01/12 06:24:11;;;;;;;35.90;21.37;;;-0.60;99.90;;;;;;5007700;28;20201;-65
2024/01/12 06:26:37;;;;;;;38.43;23.37;;;-0.60;99.90;;;;;;5004078;28;21306;-65
2024/01/12 06:29:02;;;;;;;43.93;24.53;;;-0.60;99.90;;;;;;5013245;28;20446;-65
2024/01/12 06:31:31;;;;;;;33.10;21.87;;;-0.60;99.90;;;;;;5008600;28;20554;-65
2024/01/12 06:33:56;;;;;;;44.30;24.87;;;-0.70;99.90;;;;;;5012618;28;20549;-65
2024/01/12 06:36:22;;;;;;;38.90;21.93;;;-0.60;99.90;;;;;;5011307;28;20440;-65
2024/01/12 06:38:47;;;;;;;43.87;24.10;;;-0.70;99.90;;;;;;5014078;28;20199;-65
2024/01/12 06:41:13;;;;;;;44.87;24.77;;;-0.70;99.90;;;;;;5021693;28;20191;-65
2024/01/12 06:43:39;;;;;;;45.50;26.40;;;-0.70;99.90;;;;;;5009123;28;20760;-65
2024/01/12 06:46:07;;;;;;;38.97;23.03;;;-0.70;99.90;;;;;;5013804;28;20218;-65
2024/01/12 06:48:34;;;;;;;43.80;24.27;;;-0.70;99.90;;;;;;5005871;28;20193;-65
2024/01/12 06:51:00;;;;;;;42.80;24.33;;;-0.80;99.90;;;;;;5009780;28;20427;-65
2024/01/12 06:53:25;;;;;;;42.00;24.07;;;-0.80;99.90;;;;;;5022027;28;21013;-65
2024/01/12 06:55:51;;;;;;;36.47;24.80;;;-0.80;99.90;;;;;;5014807;28;20209;-65
2024/01/12 06:58:16;;;;;;;42.07;22.80;;;-0.80;99.90;;;;;;5018650;28;20202;-66
2024/01/12 07:00:42;;;;;;;43.83;24.10;;;-0.80;99.90;;;;;;5010845;28;20195;-66
2024/01/12 07:03:08;;;;;;;43.87;24.67;;;-0.90;99.90;;;;;;5019118;28;20239;-66
2024/01/12 07:05:33;;;;;;;43.63;24.43;;;-0.90;99.90;;;;;;5016241;28;20248;-65
2024/01/12 07:07:59;;;;;;;48.47;25.07;;;-0.90;99.90;;;;;;5016588;28;20201;-65
2024/01/12 07:10:25;;;;;;;47.60;25.77;;;-0.90;99.90;;;;;;5014920;28;20187;-65
2024/01/12 07:12:51;;;;;;;39.97;25.03;;;-1.00;99.90;;;;;;5018870;28;20270;-65
2024/01/12 07:15:18;;;;;;;49.23;27.70;;;-1.00;99.90;;;;;;5016974;28;20178;-65
2024/01/12 07:17:46;;;;;;;43.70;27.00;;;-1.00;99.90;;;;;;5012070;28;20445;-65
2024/01/12 07:20:11;;;;;;;45.30;25.47;;;-1.00;99.90;;;;;;5011061;28;20477;-65
2024/01/12 07:22:37;;;;;;;54.97;27.33;;;-1.00;99.90;;;;;;5017042;28;20473;-66
2024/01/12 07:25:05;;;;;;;49.90;24.70;;;-1.00;99.90;;;;;;5014276;28;20333;-65
2024/01/12 07:27:31;;;;;;;58.10;27.63;;;-1.00;99.90;;;;;;5014534;28;20184;-65
2024/01/12 07:29:56;;;;;;;48.20;26.13;;;-1.00;99.90;;;;;;5014277;28;20968;-65
2024/01/12 07:32:22;;;;;;;53.53;27.60;;;-1.00;99.90;;;;;;5014311;28;20338;-65
2024/01/12 07:34:48;;;;;;;49.13;27.70;;;-1.00;99.90;;;;;;5016310;28;20224;-65
2024/01/12 07:37:14;;;;;;;47.30;26.60;;;-1.10;99.90;;;;;;5012281;28;20184;-66
2024/01/12 07:39:39;;;;;;;46.37;27.17;;;-1.00;99.90;;;;;;5014627;28;20987;-65
2024/01/12 07:42:05;;;;;;;39.90;26.43;;;-1.10;99.90;;;;;;5014898;28;20216;-65
2024/01/12 07:44:30;;;;;;;49.70;27.43;;;-1.10;99.90;;;;;;5015075;28;20262;-66
2024/01/12 07:46:56;;;;;;;45.83;26.20;;;-1.20;99.90;;;;;;5015892;28;20192;-66
2024/01/12 07:49:22;;;;;;;55.17;28.90;;;-1.20;99.90;;;;;;5018024;28;20190;-65
2024/01/12 07:51:47;;;;;;;50.37;28.53;;;-1.20;99.90;;;;;;5012178;28;20199;-65
2024/01/12 07:54:13;;;;;;;50.33;27.90;;;-1.20;99.90;;;;;;5013331;28;20733;-66
2024/01/12 07:56:38;;;;;;;52.03;29.30;;;-1.20;99.90;;;;;;5009077;28;20269;-65
2024/01/12 07:59:04;;;;;;;54.57;29.40;;;-1.20;99.90;;;;;;5016320;28;20199;-66
2024/01/12 08:01:29;;;;;;;53.17;28.57;;;-1.20;99.90;;;;;;5016097;28;20262;-66
2024/01/12 08:03:55;;;;;;;50.10;29.47;;;-1.20;99.90;;;;;;5014196;28;20196;-65
2024/01/12 08:06:21;;;;;;;49.37;26.87;;;-1.20;99.90;;;;;;5015098;28;20218;-65
2024/01/12 08:08:46;;;;;;;49.43;27.47;;;-1.20;99.90;;;;;;5015889;28;20211;-65
2024/01/12 08:11:12;;;;;;;50.27;30.47;;;-1.20;99.90;;;;;;5012655;28;20271;-66
2024/01/12 08:13:37;;;;;;;47.13;27.50;;;-1.20;99.90;;;;;;5012338;28;20209;-65
2024/01/12 08:16:03;;;;;;;45.67;26.83;;;-1.30;99.90;;;;;;5005381;28;20182;-65
2024/01/12 08:18:29;;;;;;;48.73;28.07;;;-1.30;99.90;;;;;;5010542;28;20285;-66
2024/01/12 08:20:55;;;;;;;49.53;25.70;;;-1.20;99.90;;;;;;5019831;28;20190;-65
2024/01/12 08:23:20;;;;;;;57.40;30.00;;;-1.10;99.90;;;;;;5019369;28;20277;-66
2024/01/12 08:25:46;;;;;;;48.27;28.00;;;-1.10;99.90;;;;;;5014736;28;20909;-65
2024/01/12 08:28:12;;;;;;;54.77;30.70;;;-1.10;99.90;;;;;;5015650;28;20184;-66
2024/01/12 08:30:38;;;;;;;54.20;28.87;;;-1.10;99.90;;;;;;5005914;28;20443;-65
2024/01/12 08:33:03;;;;;;;43.10;26.83;;;-1.00;99.90;;;;;;5016170;28;20278;-66
2024/01/12 08:35:29;;;;;;;49.60;28.77;;;-1.00;99.90;;;;;;5016266;28;20288;-66
2024/01/12 08:37:55;;;;;;;55.67;30.57;;;-1.00;99.90;;;;;;5009866;28;20299;-66
2024/01/12 08:40:20;;;;;;;52.27;28.53;;;-1.00;99.90;;;;;;5012924;28;20442;-66
2024/01/12 08:42:46;;;;;;;45.77;27.50;;;-1.00;99.90;;;;;;5017622;28;20210;-67
2024/01/12 08:45:12;;;;;;;52.10;28.47;;;-1.00;99.90;;;;;;5013039;28;20656;-67
2024/01/12 08:47:37;;;;;;;48.73;27.37;;;-1.00;99.90;;;;;;5023349;28;20182;-66
2024/01/12 08:50:04;;;;;;;51.90;26.97;;;-1.00;99.90;;;;;;5015259;28;20272;-66
2024/01/12 08:52:29;;;;;;;42.87;23.50;;;-1.00;99.90;;;;;;5016164;28;20191;-67
2024/01/12 08:54:55;;;;;;;52.33;28.10;;;-1.00;99.90;;;;;;5010602;28;20442;-67
2024/01/12 08:57:21;;;;;;;42.70;26.30;;;-1.00;99.90;;;;;;5016705;28;20184;-67
2024/01/12 08:59:46;;;;;;;45.33;25.37;;;-0.90;99.90;;;;;;5006493;28;20271;-66
2024/01/12 09:02:12;;;;;;;43.70;26.10;;;-0.90;99.90;;;;;;5008710;28;21391;-67
2024/01/12 09:04:38;;;;;;;40.30;25.57;;;-0.80;99.90;;;;;;5005805;28;20204;-67
2024/01/12 09:07:04;;;;;;;43.00;25.80;;;-0.80;99.90;;;;;;5005674;28;20196;-66
2024/01/12 09:09:29;;;;;;;43.00;23.20;;;-0.80;99.90;;;;;;5003004;28;20427;-66
2024/01/12 09:11:55;;;;;;;45.33;26.50;;;-0.70;99.90;;;;;;5007436;28;20190;-66
2024/01/12 09:14:20;;;;;;;43.90;26.60;;;-0.70;99.90;;;;;;5005931;28;20324;-66
2024/01/12 09:16:46;;;;;;;48.97;26.20;;;-0.60;99.90;;;;;;4998887;28;20196;-66
2024/01/12 09:19:12;;;;;;;43.40;24.63;;;-0.60;99.90;;;;;;5014770;28;20187;-66
2024/01/12 09:21:38;;;;;;;46.63;25.00;;;-0.50;99.90;;;;;;5006692;28;20218;-66
2024/01/12 09:24:04;;;;;;;44.97;25.23;;;-0.50;99.90;;;;;;5012879;28;20291;-66
2024/01/12 09:26:30;;;;;;;48.50;23.87;;;-0.40;99.90;;;;;;5008224;28;20453;-67
2024/01/12 09:28:56;;;;;;;35.10;23.10;;;-0.40;99.90;;;;;;5006078;28;20764;-67
2024/01/12 09:31:21;;;;;;;58.37;33.03;;;-0.30;99.90;;;;;;5010510;28;20300;-67
2024/01/12 09:33:47;;;;;;;41.57;22.97;;;-0.30;99.90;;;;;;5009545;28;20206;-67
2024/01/12 09:36:12;;;;;;;49.63;27.50;;;-0.20;99.90;;;;;;5009032;28;22522;-67
2024/01/12 09:38:38;;;;;;;44.60;23.97;;;-0.20;99.90;;;;;;5010134;28;20202;-68
2024/01/12 09:41:07;;;;;;;39.67;22.83;;;-0.30;99.90;;;;;;5008820;28;20200;-67
2024/01/12 09:43:36;;;;;;;38.10;23.00;;;-0.20;99.90;;;;;;5011245;28;20220;-67
2024/01/12 09:46:06;;;;;;;35.63;21.30;;;-0.20;99.90;;;;;;5010496;28;20430;-67
2024/01/12 09:48:33;;;;;;;36.23;22.70;;;-0.10;99.90;;;;;;5012828;28;20481;-67
2024/01/12 09:51:00;;;;;;;34.80;22.00;;;-0.10;99.90;;;;;;5010467;28;20541;-67
2024/01/12 09:53:26;;;;;;;41.13;22.00;;;-0.10;99.90;;;;;;5014370;28;20555;-67
2024/01/12 09:55:51;;;;;;;38.97;21.77;;;0.00;99.90;;;;;;5010997;28;20427;-68
2024/01/12 09:58:18;;;;;;;35.97;21.63;;;0.10;99.90;;;;;;5014108;28;20704;-68
2024/01/12 10:00:47;;;;;;;31.73;22.00;;;0.10;99.90;;;;;;5007640;28;20725;-67
2024/01/12 10:03:16;;;;;;;39.87;23.30;;;0.20;99.90;;;;;;5015832;28;21075;-68
2024/01/12 10:05:43;;;;;;;40.67;23.80;;;0.20;99.90;;;;;;5012106;28;20429;-68
2024/01/12 10:08:08;;;;;;;41.60;25.30;;;0.30;99.90;;;;;;5012961;28;20446;-67
2024/01/12 10:10:34;;;;;;;40.10;23.40;;;0.30;99.90;;;;;;5009913;28;20435;-67
2024/01/12 10:13:03;;;;;;;38.73;24.47;;;0.30;99.90;;;;;;5007624;28;20188;-67
2024/01/12 10:15:29;;;;;;;35.57;22.50;;;0.40;99.90;;;;;;5010334;28;20218;-67
2024/01/12 10:17:55;;;;;;;36.10;21.67;;;0.40;99.90;;;;;;5015195;28;20438;-67
2024/01/12 10:20:22;;;;;;;40.60;24.20;;;0.50;99.90;;;;;;5018092;28;21001;-67
2024/01/12 10:22:57;;;;;;;35.70;22.10;;;0.50;99.90;;;;;;5012593;28;20553;-67
2024/01/12 10:25:24;;;;;;;41.80;24.57;;;0.60;99.90;;;;;;5017530;28;21133;-67
2024/01/12 10:27:56;;;;;;;38.63;21.70;;;0.60;99.90;;;;;;5022764;28;20446;-67
2024/01/12 10:30:22;;;;;;;31.80;22.73;;;0.70;99.90;;;;;;5015572;28;20439;-67
2024/01/12 10:32:52;;;;;;;37.13;22.70;;;0.70;99.90;;;;;;5015326;28;20506;-67
2024/01/12 10:35:21;;;;;;;35.43;21.47;;;0.80;99.90;;;;;;5010952;28;20443;-66
2024/01/12 10:37:47;;;;;;;30.70;20.33;;;0.80;99.90;;;;;;5017788;28;20434;-65
2024/01/12 10:40:17;;;;;;;36.80;21.60;;;0.90;99.90;;;;;;5011295;28;20867;-65
2024/01/12 10:42:48;;;;;;;31.23;23.30;;;0.90;99.90;;;;;;5013111;28;21205;-67
2024/01/12 10:45:19;;;;;;;35.17;20.30;;;1.00;99.90;;;;;;5014084;28;21248;-66
2024/01/12 10:47:51;;;;;;;32.80;19.70;;;1.00;99.90;;;;;;5013563;28;20445;-66
2024/01/12 10:50:18;;;;;;;33.70;21.00;;;1.00;99.90;;;;;;5011751;28;20466;-66
2024/01/12 10:53:03;;;;;;;36.93;21.83;;;1.10;99.90;;;;;;5013095;28;20454;-66
2024/01/12 10:55:35;;;;;;;31.67;20.17;;;1.20;99.90;;;;;;5021403;28;20447;-66
2024/01/12 10:58:02;;;;;;;27.63;19.20;;;1.20;99.90;;;;;;5010839;28;20434;-67
2024/01/12 11:00:32;;;;;;;32.20;20.30;;;1.20;99.90;;;;;;5014612;28;20947;-67
2024/01/12 11:03:00;;;;;;;32.00;17.57;;;1.30;99.90;;;;;;5010267;28;20842;-67
2024/01/12 11:05:28;;;;;;;33.17;20.23;;;1.30;99.90;;;;;;5015979;28;20445;-67
2024/01/12 11:07:57;;;;;;;28.50;18.93;;;1.40;99.90;;;;;;5013457;28;20460;-67
2024/01/12 11:10:24;;;;;;;30.90;19.13;;;1.40;99.90;;;;;;5010207;28;20434;-67
2024/01/12 11:12:50;;;;;;;42.20;22.10;;;1.40;99.90;;;;;;5009549;28;20446;-67
2024/01/12 11:15:16;;;;;;;35.43;21.57;;;1.50;99.90;;;;;;5011824;28;21010;-67
2024/01/12 11:17:41;;;;;;;38.03;19.20;;;1.50;99.90;;;;;;5015513;28;20431;-66
2024/01/12 11:20:17;;;;;;;33.57;20.40;;;1.60;99.90;;;;;;5008078;28;20729;-67
2024/01/12 11:22:48;;;;;;;34.47;20.50;;;1.60;99.90;;;;;;5011841;28;20212;-66
2024/01/12 11:25:15;;;;;;;36.30;21.00;;;1.60;99.90;;;;;;5009945;28;20441;-66
2024/01/12 11:27:43;;;;;;;31.40;21.13;;;1.70;99.90;;;;;;5018176;28;20448;-67
2024/01/12 11:30:11;;;;;;;30.00;20.10;;;1.80;99.90;;;;;;5021468;28;20437;-66
2024/01/12 11:32:37;;;;;;;31.73;20.90;;;1.90;99.90;;;;;;5015637;28;20435;-67
2024/01/12 11:35:29;;;;;;;30.37;21.50;;;1.90;99.90;;;;;;5010707;28;20465;-66
2024/01/12 11:38:03;;;;;;;29.83;20.37;;;2.00;99.90;;;;;;5007240;28;20204;-67
2024/01/12 11:40:29;;;;;;;37.63;21.37;;;2.10;99.90;;;;;;5010163;28;20445;-66
2024/01/12 11:42:55;;;;;;;35.80;22.20;;;2.10;99.90;;;;;;5006381;28;20509;-67
2024/01/12 11:45:20;;;;;;;38.83;22.10;;;2.20;99.90;;;;;;5012820;28;21102;-66
2024/01/12 11:47:46;;;;;;;32.50;20.73;;;2.30;99.90;;;;;;5009476;28;20425;-66
2024/01/12 11:50:14;;;;;;;33.27;19.87;;;2.40;99.90;;;;;;5012823;28;20268;-66
2024/01/12 11:52:40;;;;;;;32.63;21.60;;;2.40;99.90;;;;;;5013308;28;20181;-65
2024/01/12 11:55:09;;;;;;;30.97;19.37;;;2.60;99.90;;;;;;5010614;28;22896;-65
2024/01/12 11:57:36;;;;;;;31.13;21.03;;;2.80;99.90;;;;;;5014844;28;20186;-65
2024/01/12 12:00:06;;;;;;;24.70;18.30;;;3.00;99.90;;;;;;5019710;28;20726;-65
2024/01/12 12:02:35;;;;;;;26.40;17.77;;;3.20;99.90;;;;;;5013322;28;20468;-65
2024/01/12 12:05:05;;;;;;;28.57;17.03;;;3.40;99.90;;;;;;5010187;28;20583;-65
2024/01/12 12:07:30;;;;;;;21.37;15.60;;;3.60;99.90;;;;;;5011769;28;20480;-65
2024/01/12 12:09:56;;;;;;;23.27;15.67;;;4.00;99.90;;;;;;5009787;28;20861;-65
2024/01/12 12:12:22;;;;;;;24.83;17.07;;;4.30;99.90;;;;;;5014762;28;20539;-66
2024/01/12 12:14:57;;;;;;;22.00;15.30;;;4.50;99.90;;;;;;5008369;28;20299;-66
2024/01/12 12:17:26;;;;;;;24.47;14.97;;;4.90;99.90;;;;;;5015464;28;20585;-67
2024/01/12 12:19:52;;;;;;;24.70;15.40;;;5.50;99.90;;;;;;5012007;28;20426;-66
2024/01/12 12:22:18;;;;;;;19.30;14.27;;;5.80;99.90;;;;;;5013909;28;20472;-65
2024/01/12 12:24:43;;;;;;;21.90;15.00;;;6.00;99.90;;;;;;5010672;28;20208;-66
2024/01/12 12:27:09;;;;;;;23.08;16.38;;;6.10;99.90;;;;;;5017934;28;20425;-66